sensor_id;sensor_type;location;lat;lon;timestamp;P1;durP1;ratioP1;P2;durP2;ratioP2
9056;SDS011;4563;54.756;9.400;2023-03-07T00:00:35;1.23;;;1.20;;
9056;SDS011;4563;54.756;9.400;2023-03-07T00:03:02;1.53;;;1.27;;
9056;SDS011;4563;54.756;9.400;2023-03-07T00:05:30;1.60;;;1.50;;
9056;SDS011;4563;54.756;9.400;2023-03-07T00:07:57;1.17;;;1.07;;
9056;SDS011;4563;54.756;9.400;2023-03-07T00:10:24;1.53;;;1.43;;
9056;SDS011;4563;54.756;9.400;2023-03-07T00:12:51;2.00;;;1.90;;
9056;SDS011;4563;54.756;9.400;2023-03-07T00:15:18;2.20;;;2.00;;
9056;SDS011;4563;54.756;9.400;2023-03-07T00:17:45;1.37;;;1.20;;
9056;SDS011;4563;54.756;9.400;2023-03-07T00:20:12;2.03;;;1.93;;
9056;SDS011;4563;54.756;9.400;2023-03-07T00:22:41;1.43;;;1.33;;
9056;SDS011;4563;54.756;9.400;2023-03-07T00:25:10;2.17;;;1.90;;
9056;SDS011;4563;54.756;9.400;2023-03-07T00:27:39;2.73;;;2.50;;
9056;SDS011;4563;54.756;9.400;2023-03-07T00:30:07;2.20;;;0.90;;
9056;SDS011;4563;54.756;9.400;2023-03-07T00:32:36;3.00;;;2.80;;
9056;SDS011;4563;54.756;9.400;2023-03-07T00:35:03;3.27;;;3.03;;
9056;SDS011;4563;54.756;9.400;2023-03-07T00:37:30;3.13;;;2.87;;
9056;SDS011;4563;54.756;9.400;2023-03-07T00:39:59;3.97;;;3.57;;
9056;SDS011;4563;54.756;9.400;2023-03-07T00:42:25;3.07;;;2.87;;
9056;SDS011;4563;54.756;9.400;2023-03-07T00:44:52;6.10;;;2.30;;
9056;SDS011;4563;54.756;9.400;2023-03-07T00:47:20;4.10;;;3.10;;
9056;SDS011;4563;54.756;9.400;2023-03-07T00:49:47;1.90;;;1.63;;
9056;SDS011;4563;54.756;9.400;2023-03-07T00:52:13;2.83;;;2.50;;
9056;SDS011;4563;54.756;9.400;2023-03-07T00:54:40;2.30;;;2.13;;
9056;SDS011;4563;54.756;9.400;2023-03-07T00:57:08;5.97;;;4.30;;
9056;SDS011;4563;54.756;9.400;2023-03-07T00:59:35;5.90;;;4.30;;
9056;SDS011;4563;54.756;9.400;2023-03-07T01:02:02;4.60;;;4.17;;
9056;SDS011;4563;54.756;9.400;2023-03-07T01:04:28;5.70;;;4.87;;
9056;SDS011;4563;54.756;9.400;2023-03-07T01:06:55;11.07;;;5.00;;
9056;SDS011;4563;54.756;9.400;2023-03-07T01:09:22;5.00;;;4.50;;
9056;SDS011;4563;54.756;9.400;2023-03-07T01:11:49;7.77;;;5.23;;
9056;SDS011;4563;54.756;9.400;2023-03-07T01:14:18;5.17;;;4.13;;
9056;SDS011;4563;54.756;9.400;2023-03-07T01:16:45;6.00;;;5.10;;
9056;SDS011;4563;54.756;9.400;2023-03-07T01:19:12;5.30;;;4.70;;
9056;SDS011;4563;54.756;9.400;2023-03-07T01:21:39;5.13;;;4.40;;
9056;SDS011;4563;54.756;9.400;2023-03-07T01:24:09;11.47;;;6.00;;
9056;SDS011;4563;54.756;9.400;2023-03-07T01:26:39;9.90;;;5.43;;
9056;SDS011;4563;54.756;9.400;2023-03-07T01:29:06;10.20;;;5.10;;
9056;SDS011;4563;54.756;9.400;2023-03-07T01:31:35;8.00;;;5.77;;
9056;SDS011;4563;54.756;9.400;2023-03-07T01:34:02;7.23;;;5.30;;
9056;SDS011;4563;54.756;9.400;2023-03-07T01:36:30;10.13;;;5.70;;
9056;SDS011;4563;54.756;9.400;2023-03-07T01:39:00;8.20;;;5.20;;
9056;SDS011;4563;54.756;9.400;2023-03-07T01:41:30;7.53;;;4.83;;
9056;SDS011;4563;54.756;9.400;2023-03-07T01:43:57;11.30;;;5.73;;
9056;SDS011;4563;54.756;9.400;2023-03-07T01:46:32;15.53;;;5.53;;
9056;SDS011;4563;54.756;9.400;2023-03-07T01:49:06;9.80;;;5.37;;
9056;SDS011;4563;54.756;9.400;2023-03-07T01:51:37;12.40;;;6.20;;
9056;SDS011;4563;54.756;9.400;2023-03-07T01:54:06;8.27;;;5.80;;
9056;SDS011;4563;54.756;9.400;2023-03-07T01:56:35;11.17;;;5.07;;
9056;SDS011;4563;54.756;9.400;2023-03-07T01:59:03;11.37;;;5.77;;
9056;SDS011;4563;54.756;9.400;2023-03-07T02:01:31;10.27;;;5.73;;
9056;SDS011;4563;54.756;9.400;2023-03-07T02:04:01;11.23;;;5.93;;
9056;SDS011;4563;54.756;9.400;2023-03-07T02:06:34;7.67;;;5.07;;
9056;SDS011;4563;54.756;9.400;2023-03-07T02:09:03;14.20;;;4.90;;
9056;SDS011;4563;54.756;9.400;2023-03-07T02:11:36;7.53;;;4.67;;
9056;SDS011;4563;54.756;9.400;2023-03-07T02:14:05;8.47;;;4.77;;
9056;SDS011;4563;54.756;9.400;2023-03-07T02:16:32;10.53;;;4.70;;
9056;SDS011;4563;54.756;9.400;2023-03-07T02:19:01;9.90;;;4.33;;
9056;SDS011;4563;54.756;9.400;2023-03-07T02:21:30;12.77;;;5.20;;
9056;SDS011;4563;54.756;9.400;2023-03-07T02:24:05;8.50;;;3.73;;
9056;SDS011;4563;54.756;9.400;2023-03-07T02:26:42;9.47;;;3.53;;
9056;SDS011;4563;54.756;9.400;2023-03-07T02:29:10;6.87;;;3.50;;
9056;SDS011;4563;54.756;9.400;2023-03-07T02:31:38;9.20;;;3.10;;
9056;SDS011;4563;54.756;9.400;2023-03-07T02:34:15;8.47;;;3.47;;
9056;SDS011;4563;54.756;9.400;2023-03-07T02:36:44;10.52;;;3.92;;
9056;SDS011;4563;54.756;9.400;2023-03-07T02:39:11;7.00;;;2.13;;
9056;SDS011;4563;54.756;9.400;2023-03-07T02:41:38;8.30;;;1.93;;
9056;SDS011;4563;54.756;9.400;2023-03-07T02:44:07;9.30;;;1.33;;
9056;SDS011;4563;54.756;9.400;2023-03-07T02:46:33;7.03;;;1.50;;
9056;SDS011;4563;54.756;9.400;2023-03-07T02:49:00;10.83;;;1.47;;
9056;SDS011;4563;54.756;9.400;2023-03-07T02:51:27;2.73;;;1.40;;
9056;SDS011;4563;54.756;9.400;2023-03-07T02:53:54;11.87;;;1.47;;
9056;SDS011;4563;54.756;9.400;2023-03-07T02:56:21;2.90;;;1.17;;
9056;SDS011;4563;54.756;9.400;2023-03-07T02:58:48;8.17;;;1.70;;
9056;SDS011;4563;54.756;9.400;2023-03-07T03:01:16;6.30;;;1.50;;
9056;SDS011;4563;54.756;9.400;2023-03-07T03:03:43;8.17;;;1.97;;
9056;SDS011;4563;54.756;9.400;2023-03-07T03:06:10;12.13;;;1.40;;
9056;SDS011;4563;54.756;9.400;2023-03-07T03:08:36;10.80;;;1.70;;
9056;SDS011;4563;54.756;9.400;2023-03-07T03:11:03;11.83;;;2.60;;
9056;SDS011;4563;54.756;9.400;2023-03-07T03:13:30;8.43;;;2.10;;
9056;SDS011;4563;54.756;9.400;2023-03-07T03:15:57;13.53;;;1.97;;
9056;SDS011;4563;54.756;9.400;2023-03-07T03:18:27;12.77;;;2.50;;
9056;SDS011;4563;54.756;9.400;2023-03-07T03:20:54;8.37;;;1.57;;
9056;SDS011;4563;54.756;9.400;2023-03-07T03:23:21;12.83;;;2.07;;
9056;SDS011;4563;54.756;9.400;2023-03-07T03:25:55;12.97;;;2.00;;
9056;SDS011;4563;54.756;9.400;2023-03-07T03:28:23;8.23;;;1.43;;
9056;SDS011;4563;54.756;9.400;2023-03-07T03:30:55;9.67;;;1.57;;
9056;SDS011;4563;54.756;9.400;2023-03-07T03:33:23;7.97;;;1.33;;
9056;SDS011;4563;54.756;9.400;2023-03-07T03:35:51;11.13;;;1.00;;
9056;SDS011;4563;54.756;9.400;2023-03-07T03:38:18;14.10;;;1.43;;
9056;SDS011;4563;54.756;9.400;2023-03-07T03:40:45;13.20;;;1.47;;
9056;SDS011;4563;54.756;9.400;2023-03-07T03:43:12;9.77;;;0.90;;
9056;SDS011;4563;54.756;9.400;2023-03-07T03:45:38;14.27;;;1.00;;
9056;SDS011;4563;54.756;9.400;2023-03-07T03:48:05;9.90;;;1.00;;
9056;SDS011;4563;54.756;9.400;2023-03-07T03:50:32;13.57;;;1.47;;
9056;SDS011;4563;54.756;9.400;2023-03-07T03:53:00;15.70;;;1.40;;
9056;SDS011;4563;54.756;9.400;2023-03-07T03:55:27;9.43;;;1.30;;
9056;SDS011;4563;54.756;9.400;2023-03-07T03:57:55;10.37;;;1.10;;
9056;SDS011;4563;54.756;9.400;2023-03-07T04:00:21;7.70;;;1.33;;
9056;SDS011;4563;54.756;9.400;2023-03-07T04:02:48;12.13;;;1.33;;
9056;SDS011;4563;54.756;9.400;2023-03-07T04:05:15;11.93;;;1.43;;
9056;SDS011;4563;54.756;9.400;2023-03-07T04:07:42;15.60;;;1.20;;
9056;SDS011;4563;54.756;9.400;2023-03-07T04:10:10;12.23;;;1.00;;
9056;SDS011;4563;54.756;9.400;2023-03-07T04:12:37;13.10;;;1.47;;
9056;SDS011;4563;54.756;9.400;2023-03-07T04:15:04;16.43;;;1.43;;
9056;SDS011;4563;54.756;9.400;2023-03-07T04:17:32;12.87;;;1.40;;
9056;SDS011;4563;54.756;9.400;2023-03-07T04:20:01;10.47;;;1.63;;
9056;SDS011;4563;54.756;9.400;2023-03-07T04:22:28;9.10;;;1.10;;
9056;SDS011;4563;54.756;9.400;2023-03-07T04:24:55;16.73;;;1.07;;
9056;SDS011;4563;54.756;9.400;2023-03-07T04:27:23;11.23;;;1.10;;
9056;SDS011;4563;54.756;9.400;2023-03-07T04:29:50;13.50;;;1.70;;
9056;SDS011;4563;54.756;9.400;2023-03-07T04:32:17;15.07;;;1.90;;
9056;SDS011;4563;54.756;9.400;2023-03-07T04:34:44;9.63;;;1.87;;
9056;SDS011;4563;54.756;9.400;2023-03-07T04:37:11;15.50;;;1.37;;
9056;SDS011;4563;54.756;9.400;2023-03-07T04:39:37;12.00;;;1.77;;
9056;SDS011;4563;54.756;9.400;2023-03-07T04:42:04;12.97;;;2.00;;
9056;SDS011;4563;54.756;9.400;2023-03-07T04:44:32;8.60;;;1.33;;
9056;SDS011;4563;54.756;9.400;2023-03-07T04:46:59;22.33;;;2.13;;
9056;SDS011;4563;54.756;9.400;2023-03-07T04:49:26;15.97;;;1.67;;
9056;SDS011;4563;54.756;9.400;2023-03-07T04:51:53;12.27;;;2.03;;
9056;SDS011;4563;54.756;9.400;2023-03-07T04:54:19;15.03;;;1.37;;
9056;SDS011;4563;54.756;9.400;2023-03-07T04:56:46;8.20;;;1.30;;
9056;SDS011;4563;54.756;9.400;2023-03-07T04:59:13;18.70;;;1.30;;
9056;SDS011;4563;54.756;9.400;2023-03-07T05:01:41;16.20;;;1.17;;
9056;SDS011;4563;54.756;9.400;2023-03-07T05:04:08;14.60;;;1.43;;
9056;SDS011;4563;54.756;9.400;2023-03-07T05:06:34;10.30;;;1.33;;
9056;SDS011;4563;54.756;9.400;2023-03-07T05:09:02;13.07;;;1.43;;
9056;SDS011;4563;54.756;9.400;2023-03-07T05:11:29;18.10;;;1.80;;
9056;SDS011;4563;54.756;9.400;2023-03-07T05:13:55;15.43;;;2.27;;
9056;SDS011;4563;54.756;9.400;2023-03-07T05:16:22;10.43;;;1.27;;
9056;SDS011;4563;54.756;9.400;2023-03-07T05:18:51;12.73;;;1.80;;
9056;SDS011;4563;54.756;9.400;2023-03-07T05:21:18;5.60;;;1.23;;
9056;SDS011;4563;54.756;9.400;2023-03-07T05:23:45;19.17;;;1.50;;
9056;SDS011;4563;54.756;9.400;2023-03-07T05:26:12;9.80;;;1.50;;
9056;SDS011;4563;54.756;9.400;2023-03-07T05:28:39;13.70;;;2.03;;
9056;SDS011;4563;54.756;9.400;2023-03-07T05:31:05;11.80;;;0.93;;
9056;SDS011;4563;54.756;9.400;2023-03-07T05:33:32;14.70;;;1.70;;
9056;SDS011;4563;54.756;9.400;2023-03-07T05:36:00;10.97;;;1.30;;
9056;SDS011;4563;54.756;9.400;2023-03-07T05:38:27;13.50;;;1.43;;
9056;SDS011;4563;54.756;9.400;2023-03-07T05:40:54;15.93;;;1.27;;
9056;SDS011;4563;54.756;9.400;2023-03-07T05:43:21;12.50;;;1.37;;
9056;SDS011;4563;54.756;9.400;2023-03-07T05:45:48;12.33;;;1.07;;
9056;SDS011;4563;54.756;9.400;2023-03-07T05:48:14;10.57;;;1.30;;
9056;SDS011;4563;54.756;9.400;2023-03-07T05:50:41;12.27;;;1.23;;
9056;SDS011;4563;54.756;9.400;2023-03-07T05:53:10;18.83;;;1.47;;
9056;SDS011;4563;54.756;9.400;2023-03-07T05:55:37;9.63;;;1.60;;
9056;SDS011;4563;54.756;9.400;2023-03-07T05:58:04;7.33;;;1.53;;
9056;SDS011;4563;54.756;9.400;2023-03-07T06:00:30;12.27;;;0.90;;
9056;SDS011;4563;54.756;9.400;2023-03-07T06:02:59;11.10;;;1.40;;
9056;SDS011;4563;54.756;9.400;2023-03-07T06:05:27;6.27;;;1.17;;
9056;SDS011;4563;54.756;9.400;2023-03-07T06:07:53;13.30;;;1.20;;
9056;SDS011;4563;54.756;9.400;2023-03-07T06:10:22;6.50;;;0.80;;
9056;SDS011;4563;54.756;9.400;2023-03-07T06:12:49;13.77;;;1.07;;
9056;SDS011;4563;54.756;9.400;2023-03-07T06:15:16;7.80;;;1.50;;
9056;SDS011;4563;54.756;9.400;2023-03-07T06:17:43;6.63;;;0.80;;
9056;SDS011;4563;54.756;9.400;2023-03-07T06:20:10;3.87;;;0.70;;
9056;SDS011;4563;54.756;9.400;2023-03-07T06:22:37;9.13;;;0.90;;
9056;SDS011;4563;54.756;9.400;2023-03-07T06:25:05;6.07;;;0.90;;
9056;SDS011;4563;54.756;9.400;2023-03-07T06:27:35;4.40;;;0.60;;
9056;SDS011;4563;54.756;9.400;2023-03-07T06:30:03;4.33;;;0.47;;
9056;SDS011;4563;54.756;9.400;2023-03-07T06:32:31;4.77;;;0.60;;
9056;SDS011;4563;54.756;9.400;2023-03-07T06:34:58;8.10;;;0.50;;
9056;SDS011;4563;54.756;9.400;2023-03-07T06:37:24;5.93;;;0.60;;
9056;SDS011;4563;54.756;9.400;2023-03-07T06:39:52;5.27;;;0.50;;
9056;SDS011;4563;54.756;9.400;2023-03-07T06:42:19;9.27;;;1.13;;
9056;SDS011;4563;54.756;9.400;2023-03-07T06:44:48;8.10;;;0.60;;
9056;SDS011;4563;54.756;9.400;2023-03-07T06:47:14;8.90;;;0.80;;
9056;SDS011;4563;54.756;9.400;2023-03-07T06:49:41;7.70;;;1.40;;
9056;SDS011;4563;54.756;9.400;2023-03-07T06:52:08;12.70;;;1.67;;
9056;SDS011;4563;54.756;9.400;2023-03-07T06:54:35;12.33;;;1.60;;
9056;SDS011;4563;54.756;9.400;2023-03-07T06:57:01;9.20;;;0.90;;
9056;SDS011;4563;54.756;9.400;2023-03-07T06:59:28;9.10;;;1.00;;
9056;SDS011;4563;54.756;9.400;2023-03-07T07:01:56;8.67;;;0.93;;
9056;SDS011;4563;54.756;9.400;2023-03-07T07:04:26;5.27;;;1.13;;
9056;SDS011;4563;54.756;9.400;2023-03-07T07:06:53;6.63;;;1.00;;
9056;SDS011;4563;54.756;9.400;2023-03-07T07:09:20;6.93;;;1.13;;
9056;SDS011;4563;54.756;9.400;2023-03-07T07:11:47;15.50;;;1.33;;
9056;SDS011;4563;54.756;9.400;2023-03-07T07:14:13;8.97;;;1.13;;
9056;SDS011;4563;54.756;9.400;2023-03-07T07:16:40;10.23;;;1.10;;
9056;SDS011;4563;54.756;9.400;2023-03-07T07:19:08;11.47;;;1.50;;
9056;SDS011;4563;54.756;9.400;2023-03-07T07:21:35;4.83;;;0.97;;
9056;SDS011;4563;54.756;9.400;2023-03-07T07:24:02;5.50;;;0.83;;
9056;SDS011;4563;54.756;9.400;2023-03-07T07:26:29;10.87;;;1.20;;
9056;SDS011;4563;54.756;9.400;2023-03-07T07:28:56;5.60;;;0.77;;
9056;SDS011;4563;54.756;9.400;2023-03-07T07:31:23;10.90;;;1.60;;
9056;SDS011;4563;54.756;9.400;2023-03-07T07:33:49;11.50;;;0.83;;
9056;SDS011;4563;54.756;9.400;2023-03-07T07:36:18;5.23;;;0.93;;
9056;SDS011;4563;54.756;9.400;2023-03-07T07:38:44;13.47;;;3.27;;
9056;SDS011;4563;54.756;9.400;2023-03-07T07:41:11;7.13;;;0.80;;
9056;SDS011;4563;54.756;9.400;2023-03-07T07:43:38;7.53;;;0.70;;
9056;SDS011;4563;54.756;9.400;2023-03-07T07:46:05;3.63;;;0.40;;
9056;SDS011;4563;54.756;9.400;2023-03-07T07:48:32;9.00;;;1.03;;
9056;SDS011;4563;54.756;9.400;2023-03-07T07:50:59;5.03;;;1.20;;
9056;SDS011;4563;54.756;9.400;2023-03-07T07:53:28;12.43;;;1.20;;
9056;SDS011;4563;54.756;9.400;2023-03-07T07:55:55;10.47;;;0.93;;
9056;SDS011;4563;54.756;9.400;2023-03-07T07:58:22;9.10;;;1.03;;
9056;SDS011;4563;54.756;9.400;2023-03-07T08:00:49;3.33;;;0.60;;
9056;SDS011;4563;54.756;9.400;2023-03-07T08:03:16;4.30;;;0.70;;
9056;SDS011;4563;54.756;9.400;2023-03-07T08:05:43;5.57;;;0.57;;
9056;SDS011;4563;54.756;9.400;2023-03-07T08:08:12;3.93;;;0.53;;
9056;SDS011;4563;54.756;9.400;2023-03-07T08:10:40;7.07;;;0.60;;
9056;SDS011;4563;54.756;9.400;2023-03-07T08:13:09;4.53;;;1.10;;
9056;SDS011;4563;54.756;9.400;2023-03-07T08:15:37;8.27;;;0.70;;
9056;SDS011;4563;54.756;9.400;2023-03-07T08:18:04;7.43;;;0.97;;
9056;SDS011;4563;54.756;9.400;2023-03-07T08:20:31;6.90;;;0.80;;
9056;SDS011;4563;54.756;9.400;2023-03-07T08:22:57;12.23;;;4.00;;
9056;SDS011;4563;54.756;9.400;2023-03-07T08:25:24;13.63;;;1.37;;
9056;SDS011;4563;54.756;9.400;2023-03-07T08:27:52;11.80;;;1.40;;
9056;SDS011;4563;54.756;9.400;2023-03-07T08:30:19;13.13;;;1.17;;
9056;SDS011;4563;54.756;9.400;2023-03-07T08:32:47;5.27;;;0.80;;
9056;SDS011;4563;54.756;9.400;2023-03-07T08:35:15;8.17;;;1.17;;
9056;SDS011;4563;54.756;9.400;2023-03-07T08:37:42;6.50;;;1.00;;
9056;SDS011;4563;54.756;9.400;2023-03-07T08:40:09;2.83;;;0.87;;
9056;SDS011;4563;54.756;9.400;2023-03-07T08:42:37;6.37;;;0.80;;
9056;SDS011;4563;54.756;9.400;2023-03-07T08:45:08;3.97;;;0.60;;
9056;SDS011;4563;54.756;9.400;2023-03-07T08:47:35;8.03;;;1.20;;
9056;SDS011;4563;54.756;9.400;2023-03-07T08:50:02;3.17;;;0.50;;
9056;SDS011;4563;54.756;9.400;2023-03-07T08:52:30;5.93;;;1.00;;
9056;SDS011;4563;54.756;9.400;2023-03-07T08:54:58;8.07;;;1.03;;
9056;SDS011;4563;54.756;9.400;2023-03-07T08:57:25;1.70;;;0.60;;
9056;SDS011;4563;54.756;9.400;2023-03-07T08:59:51;5.30;;;0.70;;
9056;SDS011;4563;54.756;9.400;2023-03-07T09:02:19;6.50;;;0.70;;
9056;SDS011;4563;54.756;9.400;2023-03-07T09:04:46;8.07;;;0.73;;
9056;SDS011;4563;54.756;9.400;2023-03-07T09:07:13;11.83;;;0.97;;
9056;SDS011;4563;54.756;9.400;2023-03-07T09:09:40;6.83;;;0.87;;
9056;SDS011;4563;54.756;9.400;2023-03-07T09:12:07;2.70;;;0.50;;
9056;SDS011;4563;54.756;9.400;2023-03-07T09:14:34;6.07;;;0.80;;
9056;SDS011;4563;54.756;9.400;2023-03-07T09:17:00;4.67;;;0.60;;
9056;SDS011;4563;54.756;9.400;2023-03-07T09:19:30;8.13;;;0.70;;
9056;SDS011;4563;54.756;9.400;2023-03-07T09:21:56;3.10;;;0.60;;
9056;SDS011;4563;54.756;9.400;2023-03-07T09:24:23;10.43;;;0.63;;
9056;SDS011;4563;54.756;9.400;2023-03-07T09:26:50;8.83;;;0.70;;
9056;SDS011;4563;54.756;9.400;2023-03-07T09:29:18;7.27;;;0.70;;
9056;SDS011;4563;54.756;9.400;2023-03-07T09:31:44;3.13;;;0.63;;
9056;SDS011;4563;54.756;9.400;2023-03-07T09:34:11;4.63;;;0.37;;
9056;SDS011;4563;54.756;9.400;2023-03-07T09:36:39;1.93;;;0.40;;
9056;SDS011;4563;54.756;9.400;2023-03-07T09:39:06;2.53;;;0.50;;
9056;SDS011;4563;54.756;9.400;2023-03-07T09:41:50;2.97;;;0.30;;
9056;SDS011;4563;54.756;9.400;2023-03-07T09:44:22;2.33;;;0.40;;
9056;SDS011;4563;54.756;9.400;2023-03-07T09:47:01;4.20;;;0.57;;
9056;SDS011;4563;54.756;9.400;2023-03-07T09:49:44;2.80;;;0.63;;
9056;SDS011;4563;54.756;9.400;2023-03-07T09:52:15;2.70;;;0.43;;
9056;SDS011;4563;54.756;9.400;2023-03-07T09:54:44;2.50;;;0.43;;
9056;SDS011;4563;54.756;9.400;2023-03-07T09:57:16;5.37;;;0.40;;
9056;SDS011;4563;54.756;9.400;2023-03-07T09:59:47;4.67;;;0.53;;
9056;SDS011;4563;54.756;9.400;2023-03-07T10:02:17;5.87;;;0.83;;
9056;SDS011;4563;54.756;9.400;2023-03-07T10:04:49;3.40;;;0.53;;
9056;SDS011;4563;54.756;9.400;2023-03-07T10:07:22;2.30;;;0.40;;
9056;SDS011;4563;54.756;9.400;2023-03-07T10:09:54;3.33;;;0.50;;
9056;SDS011;4563;54.756;9.400;2023-03-07T10:12:35;2.23;;;0.40;;
9056;SDS011;4563;54.756;9.400;2023-03-07T10:15:17;5.13;;;0.50;;
9056;SDS011;4563;54.756;9.400;2023-03-07T10:17:59;1.87;;;0.40;;
9056;SDS011;4563;54.756;9.400;2023-03-07T10:20:38;1.80;;;0.50;;
9056;SDS011;4563;54.756;9.400;2023-03-07T10:23:21;3.37;;;0.30;;
9056;SDS011;4563;54.756;9.400;2023-03-07T10:25:56;2.83;;;0.50;;
9056;SDS011;4563;54.756;9.400;2023-03-07T10:28:27;1.20;;;0.40;;
9056;SDS011;4563;54.756;9.400;2023-03-07T10:30:57;1.23;;;0.30;;
9056;SDS011;4563;54.756;9.400;2023-03-07T10:33:27;1.63;;;0.30;;
9056;SDS011;4563;54.756;9.400;2023-03-07T10:35:56;1.07;;;0.30;;
9056;SDS011;4563;54.756;9.400;2023-03-07T10:38:31;1.27;;;0.40;;
9056;SDS011;4563;54.756;9.400;2023-03-07T10:41:00;7.33;;;0.47;;
9056;SDS011;4563;54.756;9.400;2023-03-07T10:43:32;5.37;;;0.97;;
9056;SDS011;4563;54.756;9.400;2023-03-07T10:46:00;7.00;;;0.50;;
9056;SDS011;4563;54.756;9.400;2023-03-07T10:48:36;2.60;;;0.50;;
9056;SDS011;4563;54.756;9.400;2023-03-07T10:51:05;6.70;;;0.87;;
9056;SDS011;4563;54.756;9.400;2023-03-07T10:53:39;5.37;;;0.70;;
9056;SDS011;4563;54.756;9.400;2023-03-07T10:56:10;2.80;;;0.33;;
9056;SDS011;4563;54.756;9.400;2023-03-07T10:58:38;2.80;;;0.67;;
9056;SDS011;4563;54.756;9.400;2023-03-07T11:01:23;4.47;;;0.40;;
9056;SDS011;4563;54.756;9.400;2023-03-07T11:03:53;3.60;;;0.30;;
9056;SDS011;4563;54.756;9.400;2023-03-07T11:06:24;2.90;;;0.20;;
9056;SDS011;4563;54.756;9.400;2023-03-07T11:09:13;2.53;;;0.30;;
9056;SDS011;4563;54.756;9.400;2023-03-07T11:11:47;1.97;;;0.30;;
9056;SDS011;4563;54.756;9.400;2023-03-07T11:14:17;1.37;;;0.10;;
9056;SDS011;4563;54.756;9.400;2023-03-07T11:16:49;3.60;;;0.20;;
9056;SDS011;4563;54.756;9.400;2023-03-07T11:19:29;4.07;;;0.23;;
9056;SDS011;4563;54.756;9.400;2023-03-07T11:22:15;2.87;;;0.40;;
9056;SDS011;4563;54.756;9.400;2023-03-07T11:24:50;4.23;;;0.40;;
9056;SDS011;4563;54.756;9.400;2023-03-07T11:27:21;1.97;;;0.20;;
9056;SDS011;4563;54.756;9.400;2023-03-07T11:30:04;2.20;;;0.50;;
9056;SDS011;4563;54.756;9.400;2023-03-07T11:32:33;5.57;;;0.47;;
9056;SDS011;4563;54.756;9.400;2023-03-07T11:35:02;3.23;;;0.40;;
9056;SDS011;4563;54.756;9.400;2023-03-07T11:37:35;0.20;;;0.20;;
9056;SDS011;4563;54.756;9.400;2023-03-07T11:40:22;1.50;;;0.20;;
9056;SDS011;4563;54.756;9.400;2023-03-07T11:42:55;1.07;;;0.40;;
9056;SDS011;4563;54.756;9.400;2023-03-07T11:45:31;2.83;;;0.50;;
9056;SDS011;4563;54.756;9.400;2023-03-07T11:48:11;1.70;;;0.10;;
9056;SDS011;4563;54.756;9.400;2023-03-07T11:50:52;5.87;;;0.60;;
9056;SDS011;4563;54.756;9.400;2023-03-07T11:53:28;3.60;;;0.50;;
9056;SDS011;4563;54.756;9.400;2023-03-07T11:56:14;1.47;;;0.43;;
9056;SDS011;4563;54.756;9.400;2023-03-07T11:58:53;0.23;;;0.17;;
9056;SDS011;4563;54.756;9.400;2023-03-07T12:01:39;4.80;;;0.20;;
9056;SDS011;4563;54.756;9.400;2023-03-07T12:10:15;2.17;;;0.50;;
9056;SDS011;4563;54.756;9.400;2023-03-07T12:12:57;3.70;;;0.30;;
9056;SDS011;4563;54.756;9.400;2023-03-07T12:15:33;2.07;;;0.20;;
9056;SDS011;4563;54.756;9.400;2023-03-07T12:18:23;3.37;;;1.20;;
9056;SDS011;4563;54.756;9.400;2023-03-07T12:21:14;2.97;;;0.30;;
9056;SDS011;4563;54.756;9.400;2023-03-07T12:23:51;2.37;;;0.30;;
9056;SDS011;4563;54.756;9.400;2023-03-07T12:26:20;1.60;;;0.40;;
9056;SDS011;4563;54.756;9.400;2023-03-07T12:28:52;1.03;;;0.20;;
9056;SDS011;4563;54.756;9.400;2023-03-07T12:31:26;0.50;;;0.10;;
9056;SDS011;4563;54.756;9.400;2023-03-07T12:33:57;1.57;;;0.17;;
9056;SDS011;4563;54.756;9.400;2023-03-07T12:36:29;0.23;;;0.10;;
9056;SDS011;4563;54.756;9.400;2023-03-07T12:39:00;1.63;;;0.20;;
9056;SDS011;4563;54.756;9.400;2023-03-07T12:41:37;0.30;;;0.13;;
9056;SDS011;4563;54.756;9.400;2023-03-07T12:44:14;1.03;;;0.10;;
9056;SDS011;4563;54.756;9.400;2023-03-07T12:46:52;0.10;;;0.10;;
9056;SDS011;4563;54.756;9.400;2023-03-07T12:49:23;2.20;;;0.30;;
9056;SDS011;4563;54.756;9.400;2023-03-07T12:52:00;1.03;;;0.20;;
9056;SDS011;4563;54.756;9.400;2023-03-07T12:54:31;5.87;;;0.30;;
9056;SDS011;4563;54.756;9.400;2023-03-07T12:57:02;0.97;;;0.20;;
9056;SDS011;4563;54.756;9.400;2023-03-07T12:59:36;1.03;;;0.10;;
9056;SDS011;4563;54.756;9.400;2023-03-07T13:02:09;2.53;;;0.10;;
9056;SDS011;4563;54.756;9.400;2023-03-07T13:04:38;1.33;;;0.17;;
9056;SDS011;4563;54.756;9.400;2023-03-07T13:07:07;1.43;;;0.10;;
9056;SDS011;4563;54.756;9.400;2023-03-07T13:09:37;2.40;;;0.27;;
9056;SDS011;4563;54.756;9.400;2023-03-07T13:15:05;3.13;;;0.30;;
9056;SDS011;4563;54.756;9.400;2023-03-07T13:17:56;0.60;;;0.17;;
9056;SDS011;4563;54.756;9.400;2023-03-07T13:23:12;2.30;;;0.50;;
9056;SDS011;4563;54.756;9.400;2023-03-07T13:25:53;3.40;;;0.40;;
9056;SDS011;4563;54.756;9.400;2023-03-07T13:31:22;4.03;;;0.57;;
9056;SDS011;4563;54.756;9.400;2023-03-07T13:34:02;2.53;;;0.40;;
9056;SDS011;4563;54.756;9.400;2023-03-07T13:49:41;2.10;;;0.50;;
9056;SDS011;4563;54.756;9.400;2023-03-07T13:52:22;3.43;;;0.30;;
9056;SDS011;4563;54.756;9.400;2023-03-07T13:54:56;6.40;;;0.20;;
9056;SDS011;4563;54.756;9.400;2023-03-07T13:57:26;1.33;;;0.50;;
9056;SDS011;4563;54.756;9.400;2023-03-07T13:59:59;2.27;;;0.27;;
9056;SDS011;4563;54.756;9.400;2023-03-07T14:02:28;6.60;;;0.40;;
9056;SDS011;4563;54.756;9.400;2023-03-07T14:04:55;0.73;;;0.13;;
9056;SDS011;4563;54.756;9.400;2023-03-07T14:07:28;1.47;;;0.30;;
9056;SDS011;4563;54.756;9.400;2023-03-07T14:10:00;1.43;;;0.40;;
9056;SDS011;4563;54.756;9.400;2023-03-07T14:12:32;4.47;;;0.30;;
9056;SDS011;4563;54.756;9.400;2023-03-07T14:15:21;2.83;;;0.43;;
9056;SDS011;4563;54.756;9.400;2023-03-07T14:17:58;2.03;;;0.23;;
9056;SDS011;4563;54.756;9.400;2023-03-07T14:20:41;2.13;;;0.20;;
9056;SDS011;4563;54.756;9.400;2023-03-07T14:23:17;2.97;;;0.30;;
9056;SDS011;4563;54.756;9.400;2023-03-07T14:25:55;3.33;;;0.70;;
9056;SDS011;4563;54.756;9.400;2023-03-07T14:28:30;1.23;;;0.30;;
9056;SDS011;4563;54.756;9.400;2023-03-07T14:30:57;2.43;;;0.30;;
9056;SDS011;4563;54.756;9.400;2023-03-07T14:33:31;3.03;;;0.30;;
9056;SDS011;4563;54.756;9.400;2023-03-07T14:35:59;0.70;;;0.23;;
9056;SDS011;4563;54.756;9.400;2023-03-07T14:38:28;3.90;;;0.30;;
9056;SDS011;4563;54.756;9.400;2023-03-07T14:40:59;1.70;;;0.40;;
9056;SDS011;4563;54.756;9.400;2023-03-07T14:43:38;3.00;;;0.30;;
9056;SDS011;4563;54.756;9.400;2023-03-07T14:46:16;2.17;;;0.30;;
9056;SDS011;4563;54.756;9.400;2023-03-07T14:48:55;0.20;;;0.10;;
9056;SDS011;4563;54.756;9.400;2023-03-07T14:51:33;2.50;;;0.20;;
9056;SDS011;4563;54.756;9.400;2023-03-07T14:54:06;2.10;;;0.17;;
9056;SDS011;4563;54.756;9.400;2023-03-07T14:56:39;1.70;;;0.40;;
9056;SDS011;4563;54.756;9.400;2023-03-07T14:59:06;1.20;;;0.10;;
9056;SDS011;4563;54.756;9.400;2023-03-07T15:01:38;0.57;;;0.20;;
9056;SDS011;4563;54.756;9.400;2023-03-07T15:04:18;2.07;;;0.10;;
9056;SDS011;4563;54.756;9.400;2023-03-07T15:06:51;0.83;;;0.20;;
9056;SDS011;4563;54.756;9.400;2023-03-07T15:09:20;2.13;;;0.40;;
9056;SDS011;4563;54.756;9.400;2023-03-07T15:11:48;0.50;;;0.20;;
9056;SDS011;4563;54.756;9.400;2023-03-07T15:14:21;2.97;;;0.20;;
9056;SDS011;4563;54.756;9.400;2023-03-07T15:16:57;1.00;;;0.10;;
9056;SDS011;4563;54.756;9.400;2023-03-07T15:19:30;1.70;;;0.30;;
9056;SDS011;4563;54.756;9.400;2023-03-07T15:22:03;1.33;;;0.50;;
9056;SDS011;4563;54.756;9.400;2023-03-07T15:24:33;1.63;;;0.40;;
9056;SDS011;4563;54.756;9.400;2023-03-07T15:27:02;1.57;;;0.30;;
9056;SDS011;4563;54.756;9.400;2023-03-07T15:29:31;1.70;;;0.30;;
9056;SDS011;4563;54.756;9.400;2023-03-07T15:31:59;2.37;;;0.30;;
9056;SDS011;4563;54.756;9.400;2023-03-07T15:34:30;7.57;;;0.33;;
9056;SDS011;4563;54.756;9.400;2023-03-07T15:37:15;2.53;;;0.30;;
9056;SDS011;4563;54.756;9.400;2023-03-07T15:39:53;1.17;;;0.20;;
9056;SDS011;4563;54.756;9.400;2023-03-07T15:42:21;0.90;;;0.20;;
9056;SDS011;4563;54.756;9.400;2023-03-07T15:44:51;1.13;;;0.10;;
9056;SDS011;4563;54.756;9.400;2023-03-07T15:47:19;1.23;;;0.27;;
9056;SDS011;4563;54.756;9.400;2023-03-07T15:49:48;2.73;;;0.10;;
9056;SDS011;4563;54.756;9.400;2023-03-07T15:52:19;0.97;;;0.10;;
9056;SDS011;4563;54.756;9.400;2023-03-07T15:54:50;2.30;;;0.30;;
9056;SDS011;4563;54.756;9.400;2023-03-07T15:57:18;2.33;;;0.43;;